Homosassa, Florida
Current Conditions -  °F | °C
As of 7:35 PM on Monday 22 Dec 2014 (Local Time) from KCGC Reporting Station
Overcast Overcast  
Wind Chill: 72°   Ceiling: 1900
Heat Index: 72°   Visibility: 10mi
Dew Point: 66°   Wind: 0mph
Humidity: 83%   Direction: NA
Pressure: 29.92"   Gusts: NA
Location:  28.78°N, 82.62°W
Report Text: KCGC 230035Z AUTO 00000KT 10SM BKN019 OVC033 22/19 A2992 RMK AO2 LTG DSNT N AND NW
Loading
Personal Weather Stations






























Interactive Weather Map New forecast layout! Learn more

10-Day Weather Forecast

Advertisements
Track Severe Weather on mobile